CheckWX is a tool to help pilots better visualize weather data.  It is not intended as a substitute for an official pre-flight weather briefing.

23:00:42 UTC

PANV METAR
Anvik Airport
Anvik, Alaska, USA
Current

5 mins ago

PANV 282256Z AUTO 03016G22KT 10SM CLR M27/M33 A2962 RMK AO2 SLP214 T12721328 FZRANO TSNO
Observed
Jan-28 @ 22:56 UTC
Wind
  • 030° at 16 KTS
  • Gusting to 22 KTS
Visibility
10 SM
Flight Rules
VFR
Cloud Levels
  • Clear skies
Temperature
-27°C / -17°F
Dewpoint
-33°C / -27°F
Humidity
57%
Altimeter
29.62" Hg
Pressure
1003.02 hPa
Previous

1 hour ago

PANV 282156Z AUTO 03011KT 10SM CLR M28/M33 A2964 RMK AO2 SLP222 T12781333 FZRANO TSNO
Observed
Jan-28 @ 21:56 UTC
Wind
  • 030° at 11 KTS
Visibility
10 SM
Flight Rules
VFR
Cloud Levels
  • Clear skies
Temperature
-28°C / -18°F
Dewpoint
-33°C / -27°F
Humidity
62%
Altimeter
29.64" Hg
Pressure
1003.72 hPa
Previous

2 hours ago

PANV 282056Z AUTO 01006KT 10SM CLR M28/M33 A2966 RMK AO2 SLP228 T12781328 58006 FZRANO TSNO
Observed
Jan-28 @ 20:56 UTC
Wind
  • 010° at 6 KTS
Visibility
10 SM
Flight Rules
VFR
Cloud Levels
  • Clear skies
Temperature
-28°C / -18°F
Dewpoint
-33°C / -27°F
Humidity
62%
Altimeter
29.66" Hg
Pressure
1004.42 hPa